sensor_id;sensor_type;location;lat;lon;timestamp;temperature;humidity
15977;DHT22;8091;51.914;12.786;2022-10-16T00:00:26;15.80;99.90
15977;DHT22;8091;51.914;12.786;2022-10-16T00:02:52;15.80;99.90
15977;DHT22;8091;51.914;12.786;2022-10-16T00:05:17;15.80;99.90
15977;DHT22;8091;51.914;12.786;2022-10-16T00:07:43;15.70;99.90
15977;DHT22;8091;51.914;12.786;2022-10-16T00:10:08;15.70;99.90
15977;DHT22;8091;51.914;12.786;2022-10-16T00:12:34;15.70;99.90
15977;DHT22;8091;51.914;12.786;2022-10-16T00:14:59;15.70;99.90
15977;DHT22;8091;51.914;12.786;2022-10-16T00:17:25;15.70;99.90
15977;DHT22;8091;51.914;12.786;2022-10-16T00:19:50;15.60;99.90
15977;DHT22;8091;51.914;12.786;2022-10-16T00:22:16;15.60;99.90
15977;DHT22;8091;51.914;12.786;2022-10-16T00:24:41;15.60;99.90
15977;DHT22;8091;51.914;12.786;2022-10-16T00:27:07;15.60;99.90
15977;DHT22;8091;51.914;12.786;2022-10-16T00:29:32;15.50;99.90
15977;DHT22;8091;51.914;12.786;2022-10-16T00:31:58;15.50;99.90
15977;DHT22;8091;51.914;12.786;2022-10-16T00:34:23;15.50;99.90
15977;DHT22;8091;51.914;12.786;2022-10-16T00:36:49;15.40;99.90
15977;DHT22;8091;51.914;12.786;2022-10-16T00:39:14;15.50;99.90
15977;DHT22;8091;51.914;12.786;2022-10-16T00:41:40;15.40;99.90
15977;DHT22;8091;51.914;12.786;2022-10-16T00:44:42;15.40;99.90
15977;DHT22;8091;51.914;12.786;2022-10-16T00:46:51;15.50;99.90
15977;DHT22;8091;51.914;12.786;2022-10-16T00:49:17;15.40;99.90
15977;DHT22;8091;51.914;12.786;2022-10-16T00:51:47;15.50;99.90
15977;DHT22;8091;51.914;12.786;2022-10-16T00:54:24;15.60;99.90
15977;DHT22;8091;51.914;12.786;2022-10-16T00:56:51;15.60;99.90
15977;DHT22;8091;51.914;12.786;2022-10-16T00:59:19;15.60;99.90
15977;DHT22;8091;51.914;12.786;2022-10-16T01:01:44;15.60;99.90
15977;DHT22;8091;51.914;12.786;2022-10-16T01:04:10;15.60;99.90
15977;DHT22;8091;51.914;12.786;2022-10-16T01:06:38;15.60;99.90
15977;DHT22;8091;51.914;12.786;2022-10-16T01:09:13;15.60;99.90
15977;DHT22;8091;51.914;12.786;2022-10-16T01:14:45;15.70;99.90
15977;DHT22;8091;51.914;12.786;2022-10-16T01:17:15;15.70;99.90
15977;DHT22;8091;51.914;12.786;2022-10-16T01:22:14;15.70;99.90
15977;DHT22;8091;51.914;12.786;2022-10-16T01:24:41;15.70;99.90
15977;DHT22;8091;51.914;12.786;2022-10-16T01:35:02;15.60;99.90
15977;DHT22;8091;51.914;12.786;2022-10-16T01:37:41;15.70;99.90
15977;DHT22;8091;51.914;12.786;2022-10-16T01:40:10;15.80;99.90
15977;DHT22;8091;51.914;12.786;2022-10-16T01:42:37;15.80;99.90
15977;DHT22;8091;51.914;12.786;2022-10-16T01:45:05;15.80;99.90
15977;DHT22;8091;51.914;12.786;2022-10-16T01:47:33;15.80;99.90
15977;DHT22;8091;51.914;12.786;2022-10-16T01:49:59;15.90;99.90
15977;DHT22;8091;51.914;12.786;2022-10-16T01:52:27;16.00;99.90
15977;DHT22;8091;51.914;12.786;2022-10-16T01:54:54;16.00;99.90
15977;DHT22;8091;51.914;12.786;2022-10-16T01:57:20;15.90;99.90
15977;DHT22;8091;51.914;12.786;2022-10-16T01:59:47;15.80;99.90
15977;DHT22;8091;51.914;12.786;2022-10-16T02:02:14;15.80;99.90
15977;DHT22;8091;51.914;12.786;2022-10-16T02:04:42;15.80;99.90
15977;DHT22;8091;51.914;12.786;2022-10-16T02:07:09;15.80;99.90
15977;DHT22;8091;51.914;12.786;2022-10-16T02:09:35;15.90;99.90
15977;DHT22;8091;51.914;12.786;2022-10-16T02:12:03;15.90;99.90
15977;DHT22;8091;51.914;12.786;2022-10-16T02:14:31;15.90;99.90
15977;DHT22;8091;51.914;12.786;2022-10-16T02:16:57;15.90;99.90
15977;DHT22;8091;51.914;12.786;2022-10-16T02:19:23;15.80;99.90
15977;DHT22;8091;51.914;12.786;2022-10-16T02:21:53;15.70;99.90
15977;DHT22;8091;51.914;12.786;2022-10-16T02:26:57;15.60;99.90
15977;DHT22;8091;51.914;12.786;2022-10-16T02:29:26;15.50;99.90
15977;DHT22;8091;51.914;12.786;2022-10-16T02:31:56;15.50;99.90
15977;DHT22;8091;51.914;12.786;2022-10-16T02:34:23;15.40;99.90
15977;DHT22;8091;51.914;12.786;2022-10-16T02:36:50;15.40;99.90
15977;DHT22;8091;51.914;12.786;2022-10-16T02:39:16;15.30;99.90
15977;DHT22;8091;51.914;12.786;2022-10-16T02:41:43;15.30;99.90
15977;DHT22;8091;51.914;12.786;2022-10-16T02:44:09;15.30;99.90
15977;DHT22;8091;51.914;12.786;2022-10-16T02:46:34;15.30;99.90
15977;DHT22;8091;51.914;12.786;2022-10-16T02:49:00;15.20;99.90
15977;DHT22;8091;51.914;12.786;2022-10-16T02:51:25;15.10;99.90
15977;DHT22;8091;51.914;12.786;2022-10-16T02:53:51;15.20;99.90
15977;DHT22;8091;51.914;12.786;2022-10-16T02:56:16;15.10;99.90
15977;DHT22;8091;51.914;12.786;2022-10-16T02:58:42;15.20;99.90
15977;DHT22;8091;51.914;12.786;2022-10-16T03:01:07;15.10;99.90
15977;DHT22;8091;51.914;12.786;2022-10-16T03:03:33;15.10;99.90
15977;DHT22;8091;51.914;12.786;2022-10-16T03:05:58;15.10;99.90
15977;DHT22;8091;51.914;12.786;2022-10-16T03:08:24;15.10;99.90
15977;DHT22;8091;51.914;12.786;2022-10-16T03:10:51;15.10;99.90
15977;DHT22;8091;51.914;12.786;2022-10-16T03:13:16;15.20;99.90
15977;DHT22;8091;51.914;12.786;2022-10-16T03:15:43;15.20;99.90
15977;DHT22;8091;51.914;12.786;2022-10-16T03:18:08;15.20;99.90
15977;DHT22;8091;51.914;12.786;2022-10-16T03:20:34;15.20;99.90
15977;DHT22;8091;51.914;12.786;2022-10-16T03:23:00;15.20;99.90
15977;DHT22;8091;51.914;12.786;2022-10-16T03:25:25;15.20;99.90
15977;DHT22;8091;51.914;12.786;2022-10-16T03:27:50;15.20;99.90
15977;DHT22;8091;51.914;12.786;2022-10-16T03:30:16;15.20;99.90
15977;DHT22;8091;51.914;12.786;2022-10-16T03:32:43;15.20;99.90
15977;DHT22;8091;51.914;12.786;2022-10-16T03:35:09;15.30;99.90
15977;DHT22;8091;51.914;12.786;2022-10-16T03:37:34;15.30;99.90
15977;DHT22;8091;51.914;12.786;2022-10-16T03:40:00;15.30;99.90
15977;DHT22;8091;51.914;12.786;2022-10-16T03:42:25;15.40;99.90
15977;DHT22;8091;51.914;12.786;2022-10-16T03:44:51;15.40;99.90
15977;DHT22;8091;51.914;12.786;2022-10-16T03:47:16;15.30;99.90
15977;DHT22;8091;51.914;12.786;2022-10-16T03:49:45;15.40;99.90
15977;DHT22;8091;51.914;12.786;2022-10-16T03:52:11;15.40;99.90
15977;DHT22;8091;51.914;12.786;2022-10-16T03:54:36;15.40;99.90
15977;DHT22;8091;51.914;12.786;2022-10-16T03:57:02;15.50;99.90
15977;DHT22;8091;51.914;12.786;2022-10-16T03:59:27;15.50;99.90
15977;DHT22;8091;51.914;12.786;2022-10-16T04:01:53;15.40;99.90
15977;DHT22;8091;51.914;12.786;2022-10-16T04:04:18;15.30;99.90
15977;DHT22;8091;51.914;12.786;2022-10-16T04:06:44;15.30;99.90
15977;DHT22;8091;51.914;12.786;2022-10-16T04:09:09;15.30;99.90
15977;DHT22;8091;51.914;12.786;2022-10-16T04:11:35;15.30;99.90
15977;DHT22;8091;51.914;12.786;2022-10-16T04:14:00;15.20;99.90
15977;DHT22;8091;51.914;12.786;2022-10-16T04:16:26;15.10;99.90
15977;DHT22;8091;51.914;12.786;2022-10-16T04:18:51;15.00;99.90
15977;DHT22;8091;51.914;12.786;2022-10-16T04:21:17;15.00;99.90
15977;DHT22;8091;51.914;12.786;2022-10-16T04:23:42;15.00;99.90
15977;DHT22;8091;51.914;12.786;2022-10-16T04:26:08;14.90;99.90
15977;DHT22;8091;51.914;12.786;2022-10-16T04:28:35;15.00;99.90
15977;DHT22;8091;51.914;12.786;2022-10-16T04:31:03;15.00;99.90
15977;DHT22;8091;51.914;12.786;2022-10-16T04:33:28;15.00;99.90
15977;DHT22;8091;51.914;12.786;2022-10-16T04:35:57;14.90;99.90
15977;DHT22;8091;51.914;12.786;2022-10-16T04:38:23;14.90;99.90
15977;DHT22;8091;51.914;12.786;2022-10-16T04:40:49;15.00;99.90
15977;DHT22;8091;51.914;12.786;2022-10-16T04:43:14;15.10;99.90
15977;DHT22;8091;51.914;12.786;2022-10-16T04:45:40;15.10;99.90
15977;DHT22;8091;51.914;12.786;2022-10-16T04:48:05;15.10;99.90
15977;DHT22;8091;51.914;12.786;2022-10-16T04:50:31;15.10;99.90
15977;DHT22;8091;51.914;12.786;2022-10-16T04:52:56;15.10;99.90
15977;DHT22;8091;51.914;12.786;2022-10-16T04:55:22;15.00;99.90
15977;DHT22;8091;51.914;12.786;2022-10-16T04:57:47;15.00;99.90
15977;DHT22;8091;51.914;12.786;2022-10-16T05:00:13;15.00;99.90
15977;DHT22;8091;51.914;12.786;2022-10-16T05:02:39;14.90;99.90
15977;DHT22;8091;51.914;12.786;2022-10-16T05:05:04;14.90;99.90
15977;DHT22;8091;51.914;12.786;2022-10-16T05:07:30;14.80;99.90
15977;DHT22;8091;51.914;12.786;2022-10-16T05:09:56;14.70;99.90
15977;DHT22;8091;51.914;12.786;2022-10-16T05:12:21;14.60;99.90
15977;DHT22;8091;51.914;12.786;2022-10-16T05:14:47;14.50;99.90
15977;DHT22;8091;51.914;12.786;2022-10-16T05:17:12;14.70;99.90
15977;DHT22;8091;51.914;12.786;2022-10-16T05:19:38;14.80;99.90
15977;DHT22;8091;51.914;12.786;2022-10-16T05:22:03;14.80;99.90
15977;DHT22;8091;51.914;12.786;2022-10-16T05:24:29;14.90;99.90
15977;DHT22;8091;51.914;12.786;2022-10-16T05:26:54;14.90;99.90
15977;DHT22;8091;51.914;12.786;2022-10-16T05:29:20;15.10;99.90
15977;DHT22;8091;51.914;12.786;2022-10-16T05:31:46;15.10;99.90
15977;DHT22;8091;51.914;12.786;2022-10-16T05:34:11;15.20;99.90
15977;DHT22;8091;51.914;12.786;2022-10-16T05:36:37;15.20;99.90
15977;DHT22;8091;51.914;12.786;2022-10-16T05:39:02;15.20;99.90
15977;DHT22;8091;51.914;12.786;2022-10-16T05:41:28;15.30;99.90
15977;DHT22;8091;51.914;12.786;2022-10-16T05:43:54;15.30;99.90
15977;DHT22;8091;51.914;12.786;2022-10-16T05:46:19;15.40;99.90
15977;DHT22;8091;51.914;12.786;2022-10-16T05:48:45;15.50;99.90
15977;DHT22;8091;51.914;12.786;2022-10-16T05:51:11;15.50;99.90
15977;DHT22;8091;51.914;12.786;2022-10-16T05:53:37;15.60;99.90
15977;DHT22;8091;51.914;12.786;2022-10-16T05:56:03;15.60;99.90
15977;DHT22;8091;51.914;12.786;2022-10-16T05:58:30;15.60;99.90
15977;DHT22;8091;51.914;12.786;2022-10-16T06:01:00;15.60;99.90
15977;DHT22;8091;51.914;12.786;2022-10-16T06:03:26;15.60;99.90
15977;DHT22;8091;51.914;12.786;2022-10-16T06:05:51;15.50;99.90
15977;DHT22;8091;51.914;12.786;2022-10-16T06:08:18;15.40;99.90
15977;DHT22;8091;51.914;12.786;2022-10-16T06:10:44;15.40;99.90
15977;DHT22;8091;51.914;12.786;2022-10-16T06:13:10;15.40;99.90
15977;DHT22;8091;51.914;12.786;2022-10-16T06:15:35;15.40;99.90
15977;DHT22;8091;51.914;12.786;2022-10-16T06:18:01;15.40;99.90
15977;DHT22;8091;51.914;12.786;2022-10-16T06:20:27;15.50;99.90
15977;DHT22;8091;51.914;12.786;2022-10-16T06:22:52;15.50;99.90
15977;DHT22;8091;51.914;12.786;2022-10-16T06:25:18;15.40;99.90
15977;DHT22;8091;51.914;12.786;2022-10-16T06:27:43;15.40;99.90
15977;DHT22;8091;51.914;12.786;2022-10-16T06:30:09;15.30;99.90
15977;DHT22;8091;51.914;12.786;2022-10-16T06:32:34;15.30;99.90
15977;DHT22;8091;51.914;12.786;2022-10-16T06:35:00;15.40;99.90
15977;DHT22;8091;51.914;12.786;2022-10-16T06:37:26;15.40;99.90
15977;DHT22;8091;51.914;12.786;2022-10-16T06:39:52;15.40;99.90
15977;DHT22;8091;51.914;12.786;2022-10-16T06:42:17;15.50;99.90
15977;DHT22;8091;51.914;12.786;2022-10-16T06:44:43;15.40;99.90
15977;DHT22;8091;51.914;12.786;2022-10-16T06:47:08;15.50;99.90
15977;DHT22;8091;51.914;12.786;2022-10-16T06:49:34;15.50;99.90
15977;DHT22;8091;51.914;12.786;2022-10-16T06:52:00;15.50;99.90
15977;DHT22;8091;51.914;12.786;2022-10-16T06:54:26;15.50;99.90
15977;DHT22;8091;51.914;12.786;2022-10-16T06:56:52;15.70;99.90
15977;DHT22;8091;51.914;12.786;2022-10-16T06:59:20;15.80;99.90
15977;DHT22;8091;51.914;12.786;2022-10-16T07:01:45;16.00;99.90
15977;DHT22;8091;51.914;12.786;2022-10-16T07:04:11;16.20;99.90
15977;DHT22;8091;51.914;12.786;2022-10-16T07:06:36;16.40;99.90
15977;DHT22;8091;51.914;12.786;2022-10-16T07:09:03;16.40;99.90
15977;DHT22;8091;51.914;12.786;2022-10-16T07:11:29;16.50;99.90
15977;DHT22;8091;51.914;12.786;2022-10-16T07:13:55;16.60;99.90
15977;DHT22;8091;51.914;12.786;2022-10-16T07:16:21;16.80;99.90
15977;DHT22;8091;51.914;12.786;2022-10-16T07:18:47;16.80;99.90
15977;DHT22;8091;51.914;12.786;2022-10-16T07:21:15;16.80;99.90
15977;DHT22;8091;51.914;12.786;2022-10-16T07:23:41;16.70;99.90
15977;DHT22;8091;51.914;12.786;2022-10-16T07:26:06;16.80;99.90
15977;DHT22;8091;51.914;12.786;2022-10-16T07:28:32;16.80;99.90
15977;DHT22;8091;51.914;12.786;2022-10-16T07:31:05;16.80;99.90
15977;DHT22;8091;51.914;12.786;2022-10-16T07:33:31;16.80;99.90
15977;DHT22;8091;51.914;12.786;2022-10-16T07:35:56;16.80;66.50
15977;DHT22;8091;51.914;12.786;2022-10-16T07:38:23;16.80;86.80
15977;DHT22;8091;51.914;12.786;2022-10-16T07:40:55;16.70;66.50
15977;DHT22;8091;51.914;12.786;2022-10-16T07:43:20;16.80;28.70
15977;DHT22;8091;51.914;12.786;2022-10-16T07:45:46;16.90;6.70
15977;DHT22;8091;51.914;12.786;2022-10-16T07:48:13;16.90;1.00
15977;DHT22;8091;51.914;12.786;2022-10-16T07:50:38;16.90;1.00
15977;DHT22;8091;51.914;12.786;2022-10-16T07:53:04;17.10;1.00
15977;DHT22;8091;51.914;12.786;2022-10-16T07:55:29;17.20;1.00
15977;DHT22;8091;51.914;12.786;2022-10-16T07:57:55;17.30;1.00
15977;DHT22;8091;51.914;12.786;2022-10-16T08:00:20;17.40;1.00
15977;DHT22;8091;51.914;12.786;2022-10-16T08:02:46;17.40;1.00
15977;DHT22;8091;51.914;12.786;2022-10-16T08:05:12;17.40;1.00
15977;DHT22;8091;51.914;12.786;2022-10-16T08:07:37;17.40;1.00
15977;DHT22;8091;51.914;12.786;2022-10-16T08:10:03;17.50;99.90
15977;DHT22;8091;51.914;12.786;2022-10-16T08:12:29;17.60;99.90
15977;DHT22;8091;51.914;12.786;2022-10-16T08:14:54;17.50;99.90
15977;DHT22;8091;51.914;12.786;2022-10-16T08:17:20;17.60;2.40
15977;DHT22;8091;51.914;12.786;2022-10-16T08:19:48;17.60;1.00
15977;DHT22;8091;51.914;12.786;2022-10-16T08:22:14;17.70;1.00
15977;DHT22;8091;51.914;12.786;2022-10-16T08:24:39;17.70;1.00
15977;DHT22;8091;51.914;12.786;2022-10-16T08:27:05;17.60;1.00
15977;DHT22;8091;51.914;12.786;2022-10-16T08:29:31;17.60;99.90
15977;DHT22;8091;51.914;12.786;2022-10-16T08:31:56;17.60;1.00
15977;DHT22;8091;51.914;12.786;2022-10-16T08:34:22;17.70;99.90
15977;DHT22;8091;51.914;12.786;2022-10-16T08:36:47;17.80;99.90
15977;DHT22;8091;51.914;12.786;2022-10-16T08:39:13;17.90;1.00
15977;DHT22;8091;51.914;12.786;2022-10-16T08:49:32;18.50;1.00
15977;DHT22;8091;51.914;12.786;2022-10-16T08:51:57;18.60;1.00
15977;DHT22;8091;51.914;12.786;2022-10-16T08:54:34;18.70;84.40
15977;DHT22;8091;51.914;12.786;2022-10-16T08:59:34;18.60;12.70
15977;DHT22;8091;51.914;12.786;2022-10-16T09:01:59;18.70;1.00
15977;DHT22;8091;51.914;12.786;2022-10-16T09:06:53;18.80;99.90
15977;DHT22;8091;51.914;12.786;2022-10-16T09:09:43;19.00;1.00
15977;DHT22;8091;51.914;12.786;2022-10-16T09:12:19;19.10;1.00
15977;DHT22;8091;51.914;12.786;2022-10-16T09:20:12;19.50;1.00
15977;DHT22;8091;51.914;12.786;2022-10-16T09:22:38;19.50;1.00
15977;DHT22;8091;51.914;12.786;2022-10-16T09:25:10;19.50;1.00
15977;DHT22;8091;51.914;12.786;2022-10-16T09:27:36;19.50;1.00
15977;DHT22;8091;51.914;12.786;2022-10-16T09:30:06;19.60;1.00
15977;DHT22;8091;51.914;12.786;2022-10-16T09:32:35;19.80;1.00
15977;DHT22;8091;51.914;12.786;2022-10-16T09:35:03;19.80;1.00
15977;DHT22;8091;51.914;12.786;2022-10-16T09:37:29;19.80;1.00
15977;DHT22;8091;51.914;12.786;2022-10-16T09:39:54;19.60;99.90
15977;DHT22;8091;51.914;12.786;2022-10-16T09:42:33;19.40;1.00
15977;DHT22;8091;51.914;12.786;2022-10-16T09:44:59;19.50;1.00
15977;DHT22;8091;51.914;12.786;2022-10-16T09:47:26;19.80;99.90
15977;DHT22;8091;51.914;12.786;2022-10-16T09:50:14;19.80;99.90
15977;DHT22;8091;51.914;12.786;2022-10-16T09:52:44;20.00;99.90
15977;DHT22;8091;51.914;12.786;2022-10-16T09:55:14;20.00;99.90
15977;DHT22;8091;51.914;12.786;2022-10-16T09:57:53;20.00;52.80
15977;DHT22;8091;51.914;12.786;2022-10-16T10:00:19;20.00;63.70
15977;DHT22;8091;51.914;12.786;2022-10-16T10:02:45;20.20;1.00
15977;DHT22;8091;51.914;12.786;2022-10-16T10:05:18;20.60;1.00
15977;DHT22;8091;51.914;12.786;2022-10-16T10:07:44;20.70;1.00
15977;DHT22;8091;51.914;12.786;2022-10-16T10:10:20;20.60;1.00
15977;DHT22;8091;51.914;12.786;2022-10-16T10:12:46;20.70;1.00
15977;DHT22;8091;51.914;12.786;2022-10-16T10:15:11;20.90;1.00
15977;DHT22;8091;51.914;12.786;2022-10-16T10:18:15;21.00;1.00
15977;DHT22;8091;51.914;12.786;2022-10-16T10:20:31;21.30;1.00
15977;DHT22;8091;51.914;12.786;2022-10-16T10:22:59;21.60;1.00
15977;DHT22;8091;51.914;12.786;2022-10-16T10:25:32;21.60;1.00
15977;DHT22;8091;51.914;12.786;2022-10-16T10:28:21;21.70;1.00
15977;DHT22;8091;51.914;12.786;2022-10-16T10:31:01;21.80;1.00
15977;DHT22;8091;51.914;12.786;2022-10-16T10:33:31;22.10;99.90
15977;DHT22;8091;51.914;12.786;2022-10-16T10:41:16;21.60;99.90
15977;DHT22;8091;51.914;12.786;2022-10-16T10:46:29;21.40;99.90
15977;DHT22;8091;51.914;12.786;2022-10-16T10:51:35;22.20;99.90
15977;DHT22;8091;51.914;12.786;2022-10-16T10:54:09;22.30;99.90
15977;DHT22;8091;51.914;12.786;2022-10-16T10:56:44;21.80;99.90
15977;DHT22;8091;51.914;12.786;2022-10-16T10:59:19;21.50;99.90
15977;DHT22;8091;51.914;12.786;2022-10-16T11:04:28;21.30;99.90
15977;DHT22;8091;51.914;12.786;2022-10-16T11:07:02;21.00;99.90
15977;DHT22;8091;51.914;12.786;2022-10-16T11:09:40;21.00;99.90
15977;DHT22;8091;51.914;12.786;2022-10-16T11:12:26;21.30;99.90
15977;DHT22;8091;51.914;12.786;2022-10-16T11:15:04;21.40;99.90
15977;DHT22;8091;51.914;12.786;2022-10-16T11:17:32;21.10;99.90
15977;DHT22;8091;51.914;12.786;2022-10-16T11:20:13;20.90;99.90
15977;DHT22;8091;51.914;12.786;2022-10-16T11:22:42;20.70;99.90
15977;DHT22;8091;51.914;12.786;2022-10-16T11:25:14;20.60;99.90
15977;DHT22;8091;51.914;12.786;2022-10-16T11:30:25;20.50;99.90
15977;DHT22;8091;51.914;12.786;2022-10-16T11:35:25;21.50;99.90
15977;DHT22;8091;51.914;12.786;2022-10-16T11:37:53;22.50;99.90
15977;DHT22;8091;51.914;12.786;2022-10-16T11:42:48;23.20;99.90
15977;DHT22;8091;51.914;12.786;2022-10-16T11:48:02;23.60;99.90
15977;DHT22;8091;51.914;12.786;2022-10-16T11:55:39;24.20;99.90
15977;DHT22;8091;51.914;12.786;2022-10-16T12:01:33;25.30;99.90
15977;DHT22;8091;51.914;12.786;2022-10-16T12:05:55;25.20;99.90
15977;DHT22;8091;51.914;12.786;2022-10-16T12:08:24;25.40;99.90
15977;DHT22;8091;51.914;12.786;2022-10-16T12:10:50;25.80;99.90
15977;DHT22;8091;51.914;12.786;2022-10-16T12:16:06;26.20;99.90
15977;DHT22;8091;51.914;12.786;2022-10-16T12:18:31;25.60;99.90
15977;DHT22;8091;51.914;12.786;2022-10-16T12:20:57;24.80;99.90
15977;DHT22;8091;51.914;12.786;2022-10-16T12:23:25;24.40;99.90
15977;DHT22;8091;51.914;12.786;2022-10-16T12:25:55;24.80;99.90
15977;DHT22;8091;51.914;12.786;2022-10-16T12:28:21;25.00;99.90
15977;DHT22;8091;51.914;12.786;2022-10-16T12:31:06;25.00;99.90
15977;DHT22;8091;51.914;12.786;2022-10-16T12:33:34;24.90;99.90
15977;DHT22;8091;51.914;12.786;2022-10-16T12:36:02;24.30;99.90
15977;DHT22;8091;51.914;12.786;2022-10-16T12:38:36;23.50;99.90
15977;DHT22;8091;51.914;12.786;2022-10-16T12:41:04;23.30;99.90
15977;DHT22;8091;51.914;12.786;2022-10-16T12:43:42;23.50;99.90
15977;DHT22;8091;51.914;12.786;2022-10-16T12:48:34;23.10;99.90
15977;DHT22;8091;51.914;12.786;2022-10-16T12:51:09;23.00;99.90
15977;DHT22;8091;51.914;12.786;2022-10-16T12:53:35;23.70;99.90
15977;DHT22;8091;51.914;12.786;2022-10-16T13:01:29;25.70;99.90
15977;DHT22;8091;51.914;12.786;2022-10-16T13:06:39;26.30;99.90
15977;DHT22;8091;51.914;12.786;2022-10-16T13:22:22;23.30;99.90
15977;DHT22;8091;51.914;12.786;2022-10-16T13:27:22;24.20;99.90
15977;DHT22;8091;51.914;12.786;2022-10-16T13:30:00;24.60;99.90
15977;DHT22;8091;51.914;12.786;2022-10-16T13:32:26;24.80;99.90
15977;DHT22;8091;51.914;12.786;2022-10-16T13:34:52;25.00;99.90
15977;DHT22;8091;51.914;12.786;2022-10-16T13:37:20;25.20;99.90
15977;DHT22;8091;51.914;12.786;2022-10-16T13:39:46;25.40;99.90
15977;DHT22;8091;51.914;12.786;2022-10-16T13:42:13;25.30;99.90
15977;DHT22;8091;51.914;12.786;2022-10-16T13:44:40;24.70;99.90
15977;DHT22;8091;51.914;12.786;2022-10-16T13:47:10;24.20;99.90
15977;DHT22;8091;51.914;12.786;2022-10-16T13:49:40;23.60;99.90
15977;DHT22;8091;51.914;12.786;2022-10-16T13:52:05;23.40;99.90
15977;DHT22;8091;51.914;12.786;2022-10-16T13:54:31;23.20;99.90
15977;DHT22;8091;51.914;12.786;2022-10-16T13:57:04;23.00;99.90
15977;DHT22;8091;51.914;12.786;2022-10-16T13:59:33;22.80;99.90
15977;DHT22;8091;51.914;12.786;2022-10-16T14:01:59;22.60;99.90
15977;DHT22;8091;51.914;12.786;2022-10-16T14:04:25;22.50;99.90
15977;DHT22;8091;51.914;12.786;2022-10-16T14:06:52;22.50;99.90
15977;DHT22;8091;51.914;12.786;2022-10-16T14:09:28;22.30;99.90
15977;DHT22;8091;51.914;12.786;2022-10-16T14:12:06;22.30;99.90
15977;DHT22;8091;51.914;12.786;2022-10-16T14:17:15;22.30;99.90
15977;DHT22;8091;51.914;12.786;2022-10-16T14:19:40;22.30;99.90
15977;DHT22;8091;51.914;12.786;2022-10-16T14:22:19;22.30;99.90
15977;DHT22;8091;51.914;12.786;2022-10-16T14:24:47;22.20;99.90
15977;DHT22;8091;51.914;12.786;2022-10-16T14:27:32;22.10;99.90
15977;DHT22;8091;51.914;12.786;2022-10-16T14:32:32;22.00;99.90
15977;DHT22;8091;51.914;12.786;2022-10-16T14:34:58;21.90;99.90
15977;DHT22;8091;51.914;12.786;2022-10-16T14:37:24;21.90;99.90
15977;DHT22;8091;51.914;12.786;2022-10-16T14:39:50;21.80;99.90
15977;DHT22;8091;51.914;12.786;2022-10-16T14:42:16;21.80;99.90
15977;DHT22;8091;51.914;12.786;2022-10-16T14:44:44;21.80;99.90
15977;DHT22;8091;51.914;12.786;2022-10-16T14:47:12;21.80;99.90
15977;DHT22;8091;51.914;12.786;2022-10-16T14:49:38;21.90;99.90
15977;DHT22;8091;51.914;12.786;2022-10-16T14:52:08;21.90;99.90
15977;DHT22;8091;51.914;12.786;2022-10-16T14:54:33;21.90;99.90
15977;DHT22;8091;51.914;12.786;2022-10-16T14:56:59;21.90;99.90
15977;DHT22;8091;51.914;12.786;2022-10-16T15:01:50;21.70;99.90
15977;DHT22;8091;51.914;12.786;2022-10-16T15:04:15;21.70;99.90
15977;DHT22;8091;51.914;12.786;2022-10-16T15:06:41;21.70;99.90
15977;DHT22;8091;51.914;12.786;2022-10-16T15:09:07;21.70;99.90
15977;DHT22;8091;51.914;12.786;2022-10-16T15:11:33;21.70;99.90
15977;DHT22;8091;51.914;12.786;2022-10-16T15:13:59;21.70;99.90
15977;DHT22;8091;51.914;12.786;2022-10-16T15:16:25;21.60;99.90
15977;DHT22;8091;51.914;12.786;2022-10-16T15:18:50;21.50;99.90
15977;DHT22;8091;51.914;12.786;2022-10-16T15:21:34;21.60;99.90
15977;DHT22;8091;51.914;12.786;2022-10-16T15:24:00;21.50;99.90
15977;DHT22;8091;51.914;12.786;2022-10-16T15:26:26;21.50;99.90
15977;DHT22;8091;51.914;12.786;2022-10-16T15:28:51;21.40;99.90
15977;DHT22;8091;51.914;12.786;2022-10-16T15:31:17;21.40;99.90
15977;DHT22;8091;51.914;12.786;2022-10-16T15:33:43;21.50;99.90
15977;DHT22;8091;51.914;12.786;2022-10-16T15:36:09;21.60;99.90
15977;DHT22;8091;51.914;12.786;2022-10-16T15:38:35;21.60;99.90
15977;DHT22;8091;51.914;12.786;2022-10-16T15:41:00;21.60;99.90
15977;DHT22;8091;51.914;12.786;2022-10-16T15:43:26;21.60;99.90
15977;DHT22;8091;51.914;12.786;2022-10-16T15:45:58;21.60;99.90
15977;DHT22;8091;51.914;12.786;2022-10-16T15:48:25;21.60;99.90
15977;DHT22;8091;51.914;12.786;2022-10-16T15:50:50;21.50;99.90
15977;DHT22;8091;51.914;12.786;2022-10-16T15:53:16;21.40;99.90
15977;DHT22;8091;51.914;12.786;2022-10-16T15:55:41;21.20;99.90
15977;DHT22;8091;51.914;12.786;2022-10-16T15:58:07;21.20;99.90
15977;DHT22;8091;51.914;12.786;2022-10-16T16:00:34;21.10;99.90
15977;DHT22;8091;51.914;12.786;2022-10-16T16:02:59;21.00;99.90
15977;DHT22;8091;51.914;12.786;2022-10-16T16:05:25;20.90;99.90
15977;DHT22;8091;51.914;12.786;2022-10-16T16:07:52;20.90;99.90
15977;DHT22;8091;51.914;12.786;2022-10-16T16:10:18;20.80;99.90
15977;DHT22;8091;51.914;12.786;2022-10-16T16:12:45;20.70;99.90
15977;DHT22;8091;51.914;12.786;2022-10-16T16:15:14;20.60;99.90
15977;DHT22;8091;51.914;12.786;2022-10-16T16:17:40;20.50;99.90
15977;DHT22;8091;51.914;12.786;2022-10-16T16:20:05;20.40;99.90
15977;DHT22;8091;51.914;12.786;2022-10-16T16:22:31;20.30;1.00
15977;DHT22;8091;51.914;12.786;2022-10-16T16:24:57;20.20;1.00
15977;DHT22;8091;51.914;12.786;2022-10-16T16:27:22;20.10;1.00
15977;DHT22;8091;51.914;12.786;2022-10-16T16:29:50;20.10;1.00
15977;DHT22;8091;51.914;12.786;2022-10-16T16:32:15;20.00;1.00
15977;DHT22;8091;51.914;12.786;2022-10-16T16:34:41;19.90;1.00
15977;DHT22;8091;51.914;12.786;2022-10-16T16:37:06;19.90;1.00
15977;DHT22;8091;51.914;12.786;2022-10-16T16:39:32;19.80;1.00
15977;DHT22;8091;51.914;12.786;2022-10-16T16:41:57;19.70;1.00
15977;DHT22;8091;51.914;12.786;2022-10-16T16:44:28;19.40;93.20
15977;DHT22;8091;51.914;12.786;2022-10-16T16:46:53;19.20;99.90
15977;DHT22;8091;51.914;12.786;2022-10-16T16:49:19;19.10;99.90
15977;DHT22;8091;51.914;12.786;2022-10-16T16:51:45;18.90;1.00
15977;DHT22;8091;51.914;12.786;2022-10-16T16:54:11;18.80;1.00
15977;DHT22;8091;51.914;12.786;2022-10-16T16:56:38;18.90;1.00
15977;DHT22;8091;51.914;12.786;2022-10-16T16:59:03;18.90;1.00
15977;DHT22;8091;51.914;12.786;2022-10-16T17:01:29;18.70;1.00
15977;DHT22;8091;51.914;12.786;2022-10-16T17:03:56;18.60;1.00
15977;DHT22;8091;51.914;12.786;2022-10-16T17:06:24;18.40;99.90
15977;DHT22;8091;51.914;12.786;2022-10-16T17:08:49;18.30;99.90
15977;DHT22;8091;51.914;12.786;2022-10-16T17:11:16;18.10;1.00
15977;DHT22;8091;51.914;12.786;2022-10-16T17:13:42;17.80;99.90
15977;DHT22;8091;51.914;12.786;2022-10-16T17:16:08;17.80;1.00
15977;DHT22;8091;51.914;12.786;2022-10-16T17:18:33;17.80;1.00